createdAt,value
2022-12-18T00:01:33.551Z,33.97
2022-12-18T00:04:04.145Z,39.45
2022-12-18T00:06:33.841Z,42.35
2022-12-18T00:09:03.132Z,43.03
2022-12-18T00:11:33.042Z,49.22
2022-12-18T00:14:02.163Z,45.50
2022-12-18T00:16:31.416Z,35.38
2022-12-18T00:19:00.695Z,33.80
2022-12-18T00:21:30.714Z,32.85
2022-12-18T00:24:00.208Z,28.15
2022-12-18T00:26:31.137Z,32.13
2022-12-18T00:29:05.295Z,28.88
2022-12-18T00:34:02.864Z,40.08
2022-12-18T00:36:35.657Z,37.60
2022-12-18T00:39:06.189Z,31.10
2022-12-18T00:41:34.874Z,36.95
2022-12-18T00:44:03.799Z,43.95
2022-12-18T00:46:32.402Z,56.75
2022-12-18T00:49:01.438Z,58.05
2022-12-18T00:51:29.856Z,64.18
2022-12-18T00:53:58.234Z,69.50
2022-12-18T00:56:26.806Z,59.80
2022-12-18T00:58:55.691Z,49.85
2022-12-18T01:01:24.276Z,64.25
2022-12-18T01:03:52.545Z,67.28
2022-12-18T01:06:21.816Z,42.33
2022-12-18T01:08:52.331Z,47.53
2022-12-18T01:11:22.202Z,43.72
2022-12-18T01:13:50.643Z,43.42
2022-12-18T01:16:19.159Z,44.97
2022-12-18T01:18:47.901Z,42.65
2022-12-18T01:21:17.770Z,46.97
2022-12-18T01:23:46.166Z,65.05
2022-12-18T01:26:17.185Z,56.60
2022-12-18T01:28:45.884Z,70.18
2022-12-18T01:31:23.235Z,68.18
2022-12-18T01:33:52.926Z,61.53
2022-12-18T01:36:24.802Z,61.75
2022-12-18T01:38:53.978Z,59.85
2022-12-18T01:41:25.607Z,61.60
2022-12-18T01:43:57.070Z,60.95
2022-12-18T01:46:26.543Z,73.30
2022-12-18T01:49:02.743Z,76.85
2022-12-18T01:51:32.326Z,75.72
2022-12-18T01:54:01.199Z,68.05
2022-12-18T01:56:29.514Z,67.43
2022-12-18T01:59:07.538Z,66.60
2022-12-18T02:01:36.363Z,68.65
2022-12-18T02:04:26.594Z,72.35
2022-12-18T02:07:15.614Z,54.40
2022-12-18T02:09:51.017Z,49.85
2022-12-18T02:12:29.314Z,45.72
2022-12-18T02:15:15.905Z,43.30
2022-12-18T02:18:12.637Z,48.55
2022-12-18T02:21:16.171Z,50.95
2022-12-18T02:23:51.781Z,48.42
2022-12-18T02:26:29.172Z,47.50
2022-12-18T02:29:11.961Z,43.92
2022-12-18T02:31:51.417Z,48.72
2022-12-18T02:34:23.829Z,51.13
2022-12-18T02:36:55.348Z,54.28
2022-12-18T02:39:26.797Z,54.42
2022-12-18T02:42:02.867Z,51.85
2022-12-18T02:44:31.209Z,51.50
2022-12-18T02:46:59.973Z,51.00
2022-12-18T02:49:36.676Z,45.67
2022-12-18T02:52:36.410Z,43.60
2022-12-18T02:55:10.424Z,48.72
2022-12-18T02:58:02.907Z,46.58
2022-12-18T03:00:49.898Z,48.20
2022-12-18T03:03:32.916Z,49.00
2022-12-18T03:06:07.737Z,44.25
2022-12-18T03:08:49.216Z,50.28
2022-12-18T03:11:19.893Z,48.28
2022-12-18T03:13:57.403Z,48.10
2022-12-18T03:16:30.087Z,47.22
2022-12-18T03:19:03.063Z,47.70
2022-12-18T03:21:57.617Z,51.22
2022-12-18T03:24:30.490Z,46.17
2022-12-18T03:27:06.765Z,47.90
2022-12-18T03:30:01.440Z,46.50
2022-12-18T03:32:34.116Z,45.05
2022-12-18T03:35:07.466Z,46.55
2022-12-18T03:37:38.392Z,46.55
2022-12-18T03:40:08.255Z,44.72
2022-12-18T03:42:47.741Z,41.10
2022-12-18T03:45:22.592Z,35.42
2022-12-18T03:48:02.886Z,37.47
2022-12-18T03:50:36.301Z,33.97
2022-12-18T03:53:22.789Z,33.03
2022-12-18T03:55:53.159Z,33.67
2022-12-18T03:58:26.525Z,34.33
2022-12-18T04:01:05.610Z,33.67
2022-12-18T04:03:39.373Z,28.65
2022-12-18T04:06:10.524Z,30.35
2022-12-18T04:08:41.847Z,31.33
2022-12-18T04:11:13.204Z,30.15
2022-12-18T04:13:43.910Z,28.40
2022-12-18T04:16:21.277Z,32.88
2022-12-18T04:18:53.817Z,30.65
2022-12-18T04:21:23.732Z,31.63
2022-12-18T04:23:52.007Z,31.38
2022-12-18T04:26:22.888Z,30.40
2022-12-18T04:29:11.232Z,30.02
2022-12-18T04:31:40.079Z,29.05
2022-12-18T04:34:08.665Z,29.00
2022-12-18T04:36:43.265Z,28.67
2022-12-18T04:39:11.568Z,33.20
2022-12-18T04:41:39.748Z,27.50
2022-12-18T04:44:07.979Z,29.33
2022-12-18T04:46:36.297Z,28.60
2022-12-18T04:49:04.516Z,28.52
2022-12-18T04:51:32.862Z,31.17
2022-12-18T04:54:00.937Z,32.80
2022-12-18T04:56:29.378Z,31.27
2022-12-18T04:58:57.625Z,29.92
2022-12-18T05:01:30.941Z,26.80
2022-12-18T05:04:03.314Z,26.98
2022-12-18T05:06:31.462Z,25.00
2022-12-18T05:08:59.939Z,22.35
2022-12-18T05:11:28.259Z,24.20
2022-12-18T05:13:59.704Z,23.85
2022-12-18T05:16:27.997Z,22.38
2022-12-18T05:18:56.449Z,24.20
2022-12-18T05:21:24.822Z,22.13
2022-12-18T05:23:53.107Z,22.50
2022-12-18T05:26:21.422Z,23.23
2022-12-18T05:28:49.715Z,19.90
2022-12-18T05:31:17.865Z,22.83
2022-12-18T05:33:46.117Z,23.35
2022-12-18T05:36:17.379Z,21.05
2022-12-18T05:38:45.549Z,22.50
2022-12-18T05:41:13.715Z,20.17
2022-12-18T05:43:43.172Z,21.73
2022-12-18T05:46:16.109Z,19.05
2022-12-18T05:48:45.422Z,19.33
2022-12-18T05:51:16.380Z,22.77
2022-12-18T05:53:45.476Z,20.55
2022-12-18T05:56:23.266Z,21.00
2022-12-18T05:58:55.586Z,19.45
2022-12-18T06:01:26.936Z,23.73
2022-12-18T06:03:56.573Z,22.27
2022-12-18T06:06:27.593Z,20.92
2022-12-18T06:08:56.953Z,21.20
2022-12-18T06:11:27.637Z,22.45
2022-12-18T06:13:59.175Z,20.65
2022-12-18T06:16:29.331Z,20.67
2022-12-18T06:19:01.872Z,22.83
2022-12-18T06:21:30.542Z,21.10
2022-12-18T06:24:01.272Z,23.30
2022-12-18T06:26:29.382Z,23.83
2022-12-18T06:28:57.707Z,25.85
2022-12-18T06:31:26.949Z,26.45
2022-12-18T06:33:55.421Z,27.63
2022-12-18T06:36:23.652Z,30.08
2022-12-18T06:38:51.978Z,29.42
2022-12-18T06:41:23.063Z,32.13
2022-12-18T06:43:52.248Z,35.75
2022-12-18T06:46:23.113Z,35.17
2022-12-18T06:48:52.217Z,37.67
2022-12-18T06:51:22.574Z,36.65
2022-12-18T06:53:50.991Z,34.30
2022-12-18T06:56:19.563Z,38.60
2022-12-18T06:58:47.766Z,35.63
2022-12-18T07:01:18.984Z,35.25
2022-12-18T07:03:47.530Z,35.25
2022-12-18T07:06:21.374Z,38.65
2022-12-18T07:08:51.384Z,36.42
2022-12-18T07:11:21.039Z,36.22
2022-12-18T07:13:49.582Z,40.20
2022-12-18T07:16:24.760Z,39.13
2022-12-18T07:18:56.396Z,35.58
2022-12-18T07:21:25.520Z,36.65
2022-12-18T07:23:53.961Z,34.08
2022-12-18T07:26:23.511Z,35.03
2022-12-18T07:28:56.019Z,33.88
2022-12-18T07:31:24.876Z,30.92
2022-12-18T07:33:53.923Z,31.73
2022-12-18T07:36:22.355Z,33.58
2022-12-18T07:38:51.688Z,30.15
2022-12-18T07:41:20.831Z,28.85
2022-12-18T07:43:49.458Z,28.52
2022-12-18T07:46:19.727Z,28.42
2022-12-18T07:48:49.968Z,28.08
2022-12-18T07:51:19.748Z,25.95
2022-12-18T07:53:49.717Z,25.67
2022-12-18T07:56:30.324Z,27.45
2022-12-18T07:59:00.841Z,24.67
2022-12-18T08:01:32.036Z,25.58
2022-12-18T08:04:00.451Z,25.75
2022-12-18T08:06:28.583Z,24.35
2022-12-18T08:08:57.873Z,24.60
2022-12-18T08:11:30.165Z,22.95
2022-12-18T08:13:59.323Z,21.25
2022-12-18T08:16:28.348Z,22.45
2022-12-18T08:18:56.978Z,18.80
2022-12-18T08:21:31.290Z,22.20
2022-12-18T08:24:01.762Z,20.02
2022-12-18T08:26:33.116Z,21.38
2022-12-18T08:29:02.143Z,21.55
2022-12-18T08:31:31.801Z,21.70
2022-12-18T08:34:00.341Z,20.58
2022-12-18T08:36:28.691Z,21.63
2022-12-18T08:38:57.957Z,18.40
2022-12-18T08:41:27.187Z,19.25
2022-12-18T08:43:55.435Z,20.67
2022-12-18T08:46:27.133Z,17.23
2022-12-18T08:48:56.188Z,16.98
2022-12-18T08:51:24.489Z,17.05
2022-12-18T08:53:52.997Z,17.73
2022-12-18T08:56:21.414Z,17.10
2022-12-18T08:58:52.375Z,18.30
2022-12-18T09:01:20.713Z,17.00
2022-12-18T09:03:49.894Z,16.10
2022-12-18T09:06:23.306Z,18.15
2022-12-18T09:08:51.783Z,17.45
2022-12-18T09:11:24.015Z,16.35
2022-12-18T09:13:53.336Z,14.50
2022-12-18T09:16:25.992Z,15.60
2022-12-18T09:18:58.381Z,16.08
2022-12-18T09:21:27.255Z,17.38
2022-12-18T09:23:57.065Z,16.27
2022-12-18T09:26:26.745Z,14.93
2022-12-18T09:28:55.509Z,15.68
2022-12-18T09:31:24.949Z,17.00
2022-12-18T09:33:53.257Z,16.75
2022-12-18T09:36:21.762Z,15.73
2022-12-18T09:38:50.000Z,15.00
2022-12-18T09:41:24.355Z,14.70
2022-12-18T09:44:02.171Z,14.85
2022-12-18T09:46:45.757Z,14.00
2022-12-18T09:49:19.492Z,12.48
2022-12-18T09:52:01.395Z,11.60
2022-12-18T09:54:40.422Z,12.25
2022-12-18T09:57:23.814Z,12.73
2022-12-18T10:00:06.686Z,14.55
2022-12-18T10:02:39.771Z,14.30
2022-12-18T10:05:17.626Z,12.20
2022-12-18T10:07:49.006Z,12.55
2022-12-18T10:10:20.387Z,12.95
2022-12-18T10:13:04.336Z,14.90
2022-12-18T10:16:08.077Z,11.40
2022-12-18T10:19:08.724Z,12.93
2022-12-18T10:21:52.557Z,12.35
2022-12-18T10:24:27.981Z,12.50
2022-12-18T10:27:20.885Z,13.30
2022-12-18T10:29:49.925Z,12.88
2022-12-18T10:32:30.998Z,14.15
2022-12-18T10:35:00.639Z,10.97
2022-12-18T10:37:31.496Z,12.50
2022-12-18T10:40:18.223Z,11.52
2022-12-18T10:43:06.352Z,12.68
2022-12-18T10:45:34.678Z,11.57
2022-12-18T10:48:02.963Z,14.00
2022-12-18T10:53:29.436Z,10.60
2022-12-18T10:56:05.440Z,12.05
2022-12-18T10:58:39.851Z,12.48
2022-12-18T11:01:20.057Z,12.55
2022-12-18T11:04:11.491Z,11.90
2022-12-18T11:07:04.856Z,12.98
2022-12-18T11:09:38.568Z,12.13
2022-12-18T11:12:18.524Z,12.05
2022-12-18T11:14:50.907Z,12.35
2022-12-18T11:17:26.504Z,12.05
2022-12-18T11:20:22.365Z,14.07
2022-12-18T11:23:05.592Z,13.00
2022-12-18T11:25:36.326Z,11.80
2022-12-18T11:28:06.895Z,15.03
2022-12-18T11:30:38.703Z,14.02
2022-12-18T11:33:13.271Z,15.98
2022-12-18T11:36:03.658Z,15.25
2022-12-18T11:38:36.769Z,15.70
2022-12-18T11:41:32.253Z,15.50
2022-12-18T11:44:05.558Z,18.73
2022-12-18T11:46:43.354Z,15.45
2022-12-18T11:49:35.014Z,17.85
2022-12-18T11:52:25.317Z,19.85
2022-12-18T11:54:55.273Z,17.50
2022-12-18T11:57:26.541Z,19.98
2022-12-18T11:59:57.995Z,23.60
2022-12-18T12:03:00.561Z,20.00
2022-12-18T12:05:59.046Z,20.02
2022-12-18T12:08:44.400Z,27.83
2022-12-18T12:11:23.229Z,21.27
2022-12-18T12:14:14.008Z,33.25
2022-12-18T12:16:54.465Z,29.15
2022-12-18T12:19:43.714Z,26.25
2022-12-18T12:22:26.404Z,30.50
2022-12-18T12:25:25.880Z,24.20
2022-12-18T12:28:35.847Z,15.70
2022-12-18T12:31:17.738Z,15.10
2022-12-18T12:34:13.945Z,21.88
2022-12-18T12:36:48.298Z,14.45
2022-12-18T12:39:21.010Z,14.07
2022-12-18T12:41:49.869Z,12.32
2022-12-18T12:44:52.774Z,14.15
2022-12-18T12:47:43.559Z,19.42
2022-12-18T12:50:22.014Z,33.38
2022-12-18T12:52:55.413Z,17.45
2022-12-18T12:55:29.493Z,22.02
2022-12-18T12:58:21.444Z,20.02
2022-12-18T13:01:17.269Z,18.70
2022-12-18T13:04:17.961Z,18.70
2022-12-18T13:06:49.218Z,18.65
2022-12-18T13:11:49.207Z,14.93
2022-12-18T13:14:34.317Z,20.55
2022-12-18T13:17:20.815Z,27.08
2022-12-18T13:19:54.061Z,17.42
2022-12-18T13:22:25.864Z,25.77
2022-12-18T13:24:57.621Z,38.17
2022-12-18T13:27:42.457Z,13.65
2022-12-18T13:30:49.396Z,16.75
2022-12-18T13:33:19.001Z,14.88
2022-12-18T13:35:50.476Z,12.18
2022-12-18T13:38:35.405Z,15.73
2022-12-18T13:41:08.132Z,19.67
2022-12-18T13:43:48.785Z,13.50
2022-12-18T13:46:31.969Z,13.73
2022-12-18T13:49:43.452Z,13.90
2022-12-18T13:52:36.555Z,14.18
2022-12-18T13:55:08.784Z,13.20
2022-12-18T13:57:39.772Z,12.02
2022-12-18T14:00:28.277Z,10.18
2022-12-18T14:02:58.596Z,13.63
2022-12-18T14:05:28.439Z,12.23
2022-12-18T14:08:02.405Z,15.77
2022-12-18T14:10:48.677Z,17.90
2022-12-18T14:13:35.469Z,13.23
2022-12-18T14:16:06.063Z,17.25
2022-12-18T14:18:44.479Z,14.15
2022-12-18T14:21:32.045Z,13.07
2022-12-18T14:24:29.439Z,13.43
2022-12-18T14:27:20.992Z,10.23
2022-12-18T14:29:49.463Z,13.95
2022-12-18T14:32:22.251Z,11.27
2022-12-18T14:34:53.438Z,11.43
2022-12-18T14:37:27.213Z,12.77
2022-12-18T14:40:02.125Z,11.27
2022-12-18T14:42:34.257Z,11.25
2022-12-18T14:45:42.604Z,11.90
2022-12-18T14:48:42.255Z,10.10
2022-12-18T14:51:22.436Z,10.45
2022-12-18T14:53:59.471Z,15.35
2022-12-18T14:56:33.710Z,44.05
2022-12-18T14:59:04.758Z,16.67
2022-12-18T15:01:39.491Z,15.52
2022-12-18T15:04:29.906Z,15.50
2022-12-18T15:07:16.272Z,11.52
2022-12-18T15:10:24.289Z,14.98
2022-12-18T15:13:11.551Z,12.18
2022-12-18T15:15:39.852Z,10.68
2022-12-18T15:18:10.713Z,9.43
2022-12-18T15:20:41.832Z,11.17
2022-12-18T15:23:38.403Z,14.25
2022-12-18T15:26:12.784Z,17.00
2022-12-18T15:28:59.728Z,11.80
2022-12-18T15:31:35.554Z,17.65
2022-12-18T15:34:21.582Z,19.65
2022-12-18T15:36:52.001Z,12.02
2022-12-18T15:39:20.276Z,12.35
2022-12-18T15:41:48.536Z,15.15
2022-12-18T15:44:25.670Z,15.82
2022-12-18T15:46:53.909Z,13.57
2022-12-18T15:49:24.952Z,18.98
2022-12-18T15:52:00.406Z,15.70
2022-12-18T15:54:28.979Z,13.02
2022-12-18T15:56:57.240Z,18.48
2022-12-18T15:59:27.088Z,11.65
2022-12-18T16:01:55.525Z,13.07
2022-12-18T16:04:24.540Z,11.32
2022-12-18T16:09:41.737Z,14.25
2022-12-18T16:12:36.825Z,16.55
2022-12-18T16:15:07.056Z,14.43
2022-12-18T16:17:35.801Z,13.95
2022-12-18T16:20:04.433Z,12.25
2022-12-18T16:22:32.770Z,9.70
2022-12-18T16:25:01.022Z,11.00
2022-12-18T16:27:29.297Z,10.63
2022-12-18T16:29:57.616Z,19.70
2022-12-18T16:32:25.832Z,14.60
2022-12-18T16:34:53.996Z,13.23
2022-12-18T16:37:22.300Z,17.73
2022-12-18T16:39:50.570Z,13.50
2022-12-18T16:42:20.888Z,13.43
2022-12-18T16:44:50.902Z,15.77
2022-12-18T16:47:19.852Z,15.40
2022-12-18T16:49:48.382Z,13.23
2022-12-18T16:52:18.284Z,12.65
2022-12-18T16:54:46.600Z,12.20
2022-12-18T16:57:18.433Z,11.35
2022-12-18T16:59:47.764Z,13.07
2022-12-18T17:02:22.823Z,14.77
2022-12-18T17:04:55.388Z,17.08
2022-12-18T17:07:24.328Z,11.93
2022-12-18T17:09:52.730Z,12.32
2022-12-18T17:12:21.531Z,16.83
2022-12-18T17:14:51.577Z,26.60
2022-12-18T17:17:22.265Z,27.75
2022-12-18T17:19:52.754Z,38.67
2022-12-18T17:22:22.407Z,53.55
2022-12-18T17:24:50.705Z,22.92
2022-12-18T17:27:19.264Z,61.92
2022-12-18T17:29:48.793Z,158.10
2022-12-18T17:32:18.557Z,30.20
2022-12-18T17:34:47.414Z,115.80
2022-12-18T17:37:15.715Z,85.65
2022-12-18T17:39:43.950Z,26.77
2022-12-18T17:42:14.880Z,19.33
2022-12-18T17:44:44.584Z,24.83
2022-12-18T17:47:13.815Z,29.70
2022-12-18T17:49:42.187Z,30.48
2022-12-18T17:52:10.912Z,29.40
2022-12-18T17:54:39.352Z,20.73
2022-12-18T17:57:09.605Z,17.20
2022-12-18T17:59:38.105Z,23.42
2022-12-18T18:02:06.500Z,19.75
2022-12-18T18:04:34.852Z,16.52
2022-12-18T18:07:03.158Z,17.50
2022-12-18T18:09:32.383Z,26.20
2022-12-18T18:12:00.601Z,23.13
2022-12-18T18:14:29.062Z,20.73
2022-12-18T18:16:59.197Z,20.63
2022-12-18T18:19:33.632Z,15.95
2022-12-18T18:22:02.153Z,16.70
2022-12-18T18:24:33.666Z,20.83
2022-12-18T18:27:01.971Z,17.65
2022-12-18T18:29:30.776Z,21.77
2022-12-18T18:31:59.539Z,25.92
2022-12-18T18:34:29.889Z,31.17
2022-12-18T18:36:58.623Z,25.42
2022-12-18T18:39:27.623Z,27.00
2022-12-18T18:41:56.191Z,25.05
2022-12-18T18:44:25.843Z,30.00
2022-12-18T18:46:56.308Z,36.75
2022-12-18T18:49:26.633Z,30.98
2022-12-18T18:51:56.261Z,35.85
2022-12-18T18:54:25.154Z,33.65
2022-12-18T18:57:19.467Z,33.10
2022-12-18T18:59:41.794Z,29.50
2022-12-18T19:02:18.659Z,29.23
2022-12-18T19:04:47.355Z,20.20
2022-12-18T19:07:26.142Z,19.10
2022-12-18T19:10:04.459Z,17.73
2022-12-18T19:12:34.614Z,18.27
2022-12-18T19:15:06.122Z,18.73
2022-12-18T19:17:34.426Z,15.82
2022-12-18T19:20:04.744Z,17.83
2022-12-18T19:22:33.084Z,22.42
2022-12-18T19:25:01.325Z,18.95
2022-12-18T19:27:29.635Z,20.92
2022-12-18T19:29:57.845Z,19.52
2022-12-18T19:32:26.397Z,17.92
2022-12-18T19:34:54.804Z,18.40
2022-12-18T19:37:23.374Z,22.40
2022-12-18T19:39:51.902Z,24.70
2022-12-18T19:42:25.514Z,22.63
2022-12-18T19:44:56.482Z,25.15
2022-12-18T19:47:24.847Z,43.17
2022-12-18T19:49:53.029Z,101.03
2022-12-18T19:52:21.496Z,75.60
2022-12-18T19:54:49.716Z,79.60
2022-12-18T19:57:18.130Z,74.82
2022-12-18T19:59:46.525Z,65.97
2022-12-18T20:02:16.691Z,59.55
2022-12-18T20:04:45.394Z,79.45
2022-12-18T20:07:13.932Z,90.45
2022-12-18T20:09:42.432Z,112.57
2022-12-18T20:12:11.787Z,123.40
2022-12-18T20:14:40.159Z,128.50
2022-12-18T20:17:08.395Z,75.32
2022-12-18T20:19:37.675Z,72.00
2022-12-18T20:22:06.425Z,37.50
2022-12-18T20:24:35.096Z,68.20
2022-12-18T20:27:03.669Z,61.83
2022-12-18T20:29:31.944Z,55.13
2022-12-18T20:32:01.066Z,65.25
2022-12-18T20:34:29.343Z,50.63
2022-12-18T20:36:57.799Z,58.60
2022-12-18T20:39:26.321Z,56.78
2022-12-18T20:41:55.441Z,41.30
2022-12-18T20:44:24.222Z,36.80
2022-12-18T20:46:58.167Z,47.50
2022-12-18T20:49:27.840Z,46.85
2022-12-18T20:51:58.390Z,71.32
2022-12-18T20:54:28.438Z,73.60
2022-12-18T20:56:57.585Z,34.17
2022-12-18T20:59:26.156Z,34.78
2022-12-18T21:01:55.057Z,29.45
2022-12-18T21:04:24.280Z,90.68
2022-12-18T21:07:00.531Z,95.85
2022-12-18T21:09:37.929Z,39.53
2022-12-18T21:12:14.035Z,33.38
2022-12-18T21:14:43.287Z,32.47
2022-12-18T21:17:12.016Z,23.33
2022-12-18T21:19:40.367Z,18.88
2022-12-18T21:22:10.313Z,21.60
2022-12-18T21:24:38.972Z,21.42
2022-12-18T21:27:07.153Z,34.08
2022-12-18T21:29:35.503Z,31.88
2022-12-18T21:32:05.053Z,25.00
2022-12-18T21:34:33.855Z,23.17
2022-12-18T21:37:02.848Z,28.10
2022-12-18T21:39:31.898Z,27.35
2022-12-18T21:42:00.520Z,31.13
2022-12-18T21:44:28.985Z,19.20
2022-12-18T21:47:04.555Z,17.67
2022-12-18T21:49:40.734Z,16.77
2022-12-18T21:52:11.544Z,14.80
2022-12-18T21:54:39.857Z,20.75
2022-12-18T21:57:08.220Z,18.83
2022-12-18T21:59:38.803Z,15.52
2022-12-18T22:02:18.988Z,23.38
2022-12-18T22:04:47.772Z,25.23
2022-12-18T22:07:17.262Z,18.60
2022-12-18T22:09:45.708Z,20.27
2022-12-18T22:12:16.745Z,23.73
2022-12-18T22:14:44.947Z,26.25
2022-12-18T22:17:13.286Z,21.20
2022-12-18T22:19:43.095Z,22.85
2022-12-18T22:22:11.538Z,27.90
2022-12-18T22:24:40.004Z,22.92
2022-12-18T22:27:09.805Z,20.23
2022-12-18T22:29:38.582Z,19.95
2022-12-18T22:32:09.744Z,21.63
2022-12-18T22:34:40.221Z,24.05
2022-12-18T22:37:10.189Z,18.85
2022-12-18T22:39:38.409Z,19.88
2022-12-18T22:42:07.312Z,23.15
2022-12-18T22:44:35.871Z,23.63
2022-12-18T22:47:06.278Z,27.85
2022-12-18T22:49:36.040Z,26.77
2022-12-18T22:52:06.950Z,19.23
2022-12-18T22:54:35.528Z,14.73
2022-12-18T22:57:03.865Z,16.50
2022-12-18T22:59:32.090Z,16.25
2022-12-18T23:02:00.359Z,18.42
2022-12-18T23:04:36.018Z,16.58
2022-12-18T23:07:05.887Z,17.23
2022-12-18T23:09:34.754Z,21.73
2022-12-18T23:12:03.337Z,40.58
2022-12-18T23:14:31.967Z,44.10
2022-12-18T23:17:00.344Z,46.55
2022-12-18T23:19:28.474Z,36.75
2022-12-18T23:21:56.695Z,29.25
2022-12-18T23:24:27.364Z,25.55
2022-12-18T23:26:57.230Z,38.40
2022-12-18T23:29:25.478Z,36.58
2022-12-18T23:31:53.728Z,34.03
2022-12-18T23:34:22.148Z,50.55
2022-12-18T23:36:54.589Z,42.28
2022-12-18T23:39:29.277Z,36.88
2022-12-18T23:42:01.464Z,33.00
2022-12-18T23:44:29.831Z,28.63
2022-12-18T23:46:57.974Z,32.92
2022-12-18T23:49:26.228Z,27.40
2022-12-18T23:51:55.828Z,31.20
2022-12-18T23:54:32.689Z,37.47
2022-12-18T23:57:01.889Z,47.47
2022-12-18T23:59:30.110Z,53.80
